Addis, LA

10:52 PM CDT on March 29, 2017 (GMT -0500)
KLABRUSL2 | | Change Station
Active Advisory: Tornado Watch

Elev 30 ft 30.39 °N, 91.24 °W | Updated 4 minutes ago

Overcast
Overcast
73.9 °F
Feels Like 73 °F
N
10.0
Wind Variable Wind from SE
Gusts 10.0 mph

Today
High -- | Low -- °F
--% Chance of Precip.
Yesterday
High -- | Low -- °F
Precip. -- in
Pressure 29.87 in
Visibility 10.0 miles
Clouds Few 2200 ft
Mostly Cloudy 3900 ft
Overcast 11000 ft
Heat Index 73 °F
Dew Point 70 °F
Humidity 87%
Rainfall 0.00 in
Snow Depth Not available.
6:57 AM 7:22 PM
Waxing Crescent, 6% visible
SPECI KBTR 300316Z 11012KT 10SM TS FEW022 BKN039 OVC110 24/20 A2987 RMK AO2 LTG DSNT SW-N TSB15 T02390200
Pressure 29.87 in
Visibility 10.0 miles
Clouds Few 2200 ft
Mostly Cloudy 3900 ft
Overcast 11000 ft
Heat Index 73 °F
Dew Point 70 °F
Humidity 87%
Rainfall 0.00 in
Snow Depth Not available.
6:57 AM 7:22 PM
Waxing Crescent, 6% visible
SPECI KBTR 300316Z 11012KT 10SM TS FEW022 BKN039 OVC110 24/20 A2987 RMK AO2 LTG DSNT SW-N TSB15 T02390200

Get Your Daily Forecast Email!

Thanks for signing up!

Be on the lookout for a verification email in your inbox.

You'll start receiving severe weather alerts in your inbox..

×

10-Day Weather Forecast

Almanac

Astronomy

Mar. 29, 2017 Rise Set
Actual Time
Civil Twilight
Nautical Twilight
Astronomical Twilight
Moon
Length of Visible Light
Length of Day
Tomorrow will be .
, % of the Moon is Illuminated

Today's Extremes

State Highs State Lows

Community

WunderPhotos

Upload Photos

1,962,540 photos uploaded!

WunderBlog® & News

Nearby

Air Quality

  Air Quality AQ Index Pollutant
Not available.

Snow Depth

Station Depth Elevation

Earthquake Activity

City Distance Mag. Time & Date
Minimum magnitude displayed is 2.5.

Earthquake Activity

City Distance Mag. Time & Date
Minimum magnitude displayed is 2.5.

Coastal Water Temperatures

Place Temperature

Stations

Nearby Weather Stations

Station Location Temp. Windchill Dew Point Humidity Wind Precip. Elev Updated Type
                   

Watches & Warnings

Tornado Watch
Issued: 10:43 PM CDT Mar. 29, 2017 – National Weather Service

Tornado Watch 101 remains in effect until 300 am CDT for the
following locations

La
. Louisiana parishes included are

Acadia Allen Avoyelles
Beauregard Calcasieu Caldwell
Cameron Catahoula Concordia
East Baton Rouge East Carroll East Feliciana
Evangeline Franklin Grant
Iberia Iberville Jackson
Jefferson Davis Lafayette La Salle
Madison Morehouse Natchitoches
Ouachita Pointe Coupee Rapides
Richland St. Landry St. Martin
St. Mary Tensas Vermilion
West Baton Rouge West Carroll West Feliciana
Winn